Terminal Aerodrome Forecast
Issued by NWS

Home | Current Version | Previous Version | Text Only | Print | Product List | Glossary On
Versions: 1 2 3 4 5 6 7 8 9 10 11 12 13 14 15 16 17 18 19 20 21
000
FTUS41 KPHI 031124
TAFPNE
TAF
KPNE 031124Z 0312/0412 01006KT P6SM SCT250
     FM031400 07004KT P6SM SCT060 BKN250
     FM031800 16006KT P6SM BKN050
     FM041000 09005KT 5SM -SHRA BKN050 OVC100
      AMD NOT SKED=

USA.gov is the U.S. government's official web portal to all federal, state and local government web resources and services.